sensor_id;sensor_type;location;lat;lon;timestamp;pressure;altitude;pressure_sealevel;temperature;humidity
26719;BME280;14326;50.794;6.060;2022-10-16T00:01:58;99190.38;;;14.23;100.00
26719;BME280;14326;50.794;6.060;2022-10-16T00:04:25;99188.59;;;14.22;100.00
26719;BME280;14326;50.794;6.060;2022-10-16T00:06:53;99186.81;;;14.22;100.00
26719;BME280;14326;50.794;6.060;2022-10-16T00:09:20;99182.34;;;14.21;100.00
26719;BME280;14326;50.794;6.060;2022-10-16T00:11:47;99179.75;;;14.17;100.00
26719;BME280;14326;50.794;6.060;2022-10-16T00:14:14;99182.44;;;14.14;100.00
26719;BME280;14326;50.794;6.060;2022-10-16T00:16:42;99179.88;;;14.06;100.00
26719;BME280;14326;50.794;6.060;2022-10-16T00:19:09;99172.78;;;14.02;100.00
26719;BME280;14326;50.794;6.060;2022-10-16T00:21:36;99173.72;;;13.98;100.00
26719;BME280;14326;50.794;6.060;2022-10-16T00:24:07;99184.47;;;13.95;100.00
26719;BME280;14326;50.794;6.060;2022-10-16T00:26:35;99177.28;;;13.97;100.00
26719;BME280;14326;50.794;6.060;2022-10-16T00:29:03;99171.06;;;13.97;100.00
26719;BME280;14326;50.794;6.060;2022-10-16T00:31:30;99162.13;;;13.98;100.00
26719;BME280;14326;50.794;6.060;2022-10-16T00:33:57;99163.91;;;13.99;100.00
26719;BME280;14326;50.794;6.060;2022-10-16T00:36:27;99171.94;;;14.00;100.00
26719;BME280;14326;50.794;6.060;2022-10-16T00:38:56;99167.47;;;13.98;100.00
26719;BME280;14326;50.794;6.060;2022-10-16T00:41:32;99172.00;;;13.92;100.00
26719;BME280;14326;50.794;6.060;2022-10-16T00:44:44;99158.75;;;13.83;100.00
26719;BME280;14326;50.794;6.060;2022-10-16T00:47:19;99174.75;;;13.88;100.00
26719;BME280;14326;50.794;6.060;2022-10-16T00:50:06;99180.97;;;13.90;100.00
26719;BME280;14326;50.794;6.060;2022-10-16T00:52:45;99179.22;;;13.84;100.00
26719;BME280;14326;50.794;6.060;2022-10-16T00:55:16;99179.25;;;13.83;100.00
26719;BME280;14326;50.794;6.060;2022-10-16T00:57:44;99183.78;;;13.76;100.00
26719;BME280;14326;50.794;6.060;2022-10-16T01:00:20;99196.25;;;13.74;100.00
26719;BME280;14326;50.794;6.060;2022-10-16T01:03:00;99194.50;;;13.73;100.00
26719;BME280;14326;50.794;6.060;2022-10-16T01:05:33;99180.22;;;13.73;100.00
26719;BME280;14326;50.794;6.060;2022-10-16T01:08:21;99182.06;;;13.71;100.00
26719;BME280;14326;50.794;6.060;2022-10-16T01:10:58;99176.66;;;13.75;100.00
26719;BME280;14326;50.794;6.060;2022-10-16T01:13:46;99173.09;;;13.76;100.00
26719;BME280;14326;50.794;6.060;2022-10-16T01:16:26;99185.50;;;13.79;100.00
26719;BME280;14326;50.794;6.060;2022-10-16T01:19:02;99197.09;;;13.81;100.00
26719;BME280;14326;50.794;6.060;2022-10-16T01:21:41;99202.38;;;13.85;100.00
26719;BME280;14326;50.794;6.060;2022-10-16T01:24:33;99208.59;;;13.87;100.00
26719;BME280;14326;50.794;6.060;2022-10-16T01:27:18;99206.84;;;13.86;100.00
26719;BME280;14326;50.794;6.060;2022-10-16T01:29:51;99192.63;;;13.81;100.00
26719;BME280;14326;50.794;6.060;2022-10-16T01:32:28;99210.47;;;13.79;100.00
26719;BME280;14326;50.794;6.060;2022-10-16T01:35:00;99209.56;;;13.79;100.00
26719;BME280;14326;50.794;6.060;2022-10-16T01:37:41;99205.09;;;13.81;100.00
26719;BME280;14326;50.794;6.060;2022-10-16T01:40:16;99215.78;;;13.82;100.00
26719;BME280;14326;50.794;6.060;2022-10-16T01:43:00;99212.22;;;13.83;100.00
26719;BME280;14326;50.794;6.060;2022-10-16T01:45:30;99211.34;;;13.83;100.00
26719;BME280;14326;50.794;6.060;2022-10-16T01:48:03;99221.97;;;13.86;100.00
26719;BME280;14326;50.794;6.060;2022-10-16T01:50:35;99219.34;;;13.83;100.00
26719;BME280;14326;50.794;6.060;2022-10-16T01:53:12;99219.31;;;13.84;100.00
26719;BME280;14326;50.794;6.060;2022-10-16T01:55:42;99217.56;;;13.83;100.00
26719;BME280;14326;50.794;6.060;2022-10-16T01:58:13;99215.75;;;13.85;100.00
26719;BME280;14326;50.794;6.060;2022-10-16T02:03:34;99224.66;;;13.87;100.00
26719;BME280;14326;50.794;6.060;2022-10-16T02:06:04;99231.78;;;13.88;100.00
26719;BME280;14326;50.794;6.060;2022-10-16T02:08:31;99225.47;;;13.94;100.00
26719;BME280;14326;50.794;6.060;2022-10-16T02:11:04;99230.84;;;13.91;100.00
26719;BME280;14326;50.794;6.060;2022-10-16T02:13:36;99221.91;;;13.93;100.00
26719;BME280;14326;50.794;6.060;2022-10-16T02:16:05;99222.72;;;14.02;100.00
26719;BME280;14326;50.794;6.060;2022-10-16T02:18:32;99228.09;;;13.99;100.00
26719;BME280;14326;50.794;6.060;2022-10-16T02:21:01;99226.38;;;13.91;100.00
26719;BME280;14326;50.794;6.060;2022-10-16T02:23:35;99215.69;;;13.91;100.00
26719;BME280;14326;50.794;6.060;2022-10-16T02:26:05;99218.41;;;13.87;100.00
26719;BME280;14326;50.794;6.060;2022-10-16T02:28:38;99214.91;;;13.80;100.00
26719;BME280;14326;50.794;6.060;2022-10-16T02:31:09;99231.84;;;13.79;100.00
26719;BME280;14326;50.794;6.060;2022-10-16T02:33:39;99236.31;;;13.80;100.00
26719;BME280;14326;50.794;6.060;2022-10-16T02:36:07;99225.59;;;13.80;100.00
26719;BME280;14326;50.794;6.060;2022-10-16T02:38:34;99220.31;;;13.77;100.00
26719;BME280;14326;50.794;6.060;2022-10-16T02:41:01;99216.69;;;13.78;100.00
26719;BME280;14326;50.794;6.060;2022-10-16T02:43:29;99219.34;;;13.83;100.00
26719;BME280;14326;50.794;6.060;2022-10-16T02:45:57;99226.53;;;13.78;100.00
26719;BME280;14326;50.794;6.060;2022-10-16T02:48:24;99215.88;;;13.73;100.00
26719;BME280;14326;50.794;6.060;2022-10-16T02:50:51;99212.34;;;13.71;100.00
26719;BME280;14326;50.794;6.060;2022-10-16T02:53:18;99222.22;;;13.66;100.00
26719;BME280;14326;50.794;6.060;2022-10-16T02:55:44;99215.97;;;13.64;100.00
26719;BME280;14326;50.794;6.060;2022-10-16T02:58:11;99217.81;;;13.61;100.00
26719;BME280;14326;50.794;6.060;2022-10-16T03:00:38;99206.25;;;13.56;100.00
26719;BME280;14326;50.794;6.060;2022-10-16T03:03:06;99202.69;;;13.55;100.00
26719;BME280;14326;50.794;6.060;2022-10-16T03:05:32;99215.03;;;13.70;100.00
26719;BME280;14326;50.794;6.060;2022-10-16T03:07:59;99215.03;;;13.67;100.00
26719;BME280;14326;50.794;6.060;2022-10-16T03:10:26;99215.97;;;13.64;100.00
26719;BME280;14326;50.794;6.060;2022-10-16T03:12:53;99206.19;;;13.62;100.00
26719;BME280;14326;50.794;6.060;2022-10-16T03:15:19;99207.13;;;13.59;100.00
26719;BME280;14326;50.794;6.060;2022-10-16T03:17:46;99215.19;;;13.55;100.00
26719;BME280;14326;50.794;6.060;2022-10-16T03:20:14;99219.66;;;13.54;100.00
26719;BME280;14326;50.794;6.060;2022-10-16T03:22:43;99226.78;;;13.52;100.00
26719;BME280;14326;50.794;6.060;2022-10-16T03:25:13;99213.41;;;13.53;100.00
26719;BME280;14326;50.794;6.060;2022-10-16T03:27:54;99228.50;;;13.56;100.00
26719;BME280;14326;50.794;6.060;2022-10-16T03:30:31;99233.91;;;13.53;100.00
26719;BME280;14326;50.794;6.060;2022-10-16T03:32:59;99238.34;;;13.51;100.00
26719;BME280;14326;50.794;6.060;2022-10-16T03:35:36;99243.75;;;13.48;100.00
26719;BME280;14326;50.794;6.060;2022-10-16T03:38:12;99254.44;;;13.48;100.00
26719;BME280;14326;50.794;6.060;2022-10-16T03:40:47;99245.47;;;13.52;100.00
26719;BME280;14326;50.794;6.060;2022-10-16T03:43:19;99235.69;;;13.51;100.00
26719;BME280;14326;50.794;6.060;2022-10-16T03:45:50;99227.72;;;13.48;100.00
26719;BME280;14326;50.794;6.060;2022-10-16T03:48:23;99233.97;;;13.44;100.00
26719;BME280;14326;50.794;6.060;2022-10-16T03:50:55;99239.31;;;13.44;100.00
26719;BME280;14326;50.794;6.060;2022-10-16T03:53:27;99234.91;;;13.41;100.00
26719;BME280;14326;50.794;6.060;2022-10-16T03:55:56;99242.91;;;13.40;100.00
26719;BME280;14326;50.794;6.060;2022-10-16T03:58:33;99247.41;;;13.35;100.00
26719;BME280;14326;50.794;6.060;2022-10-16T04:01:10;99244.75;;;13.33;100.00
26719;BME280;14326;50.794;6.060;2022-10-16T04:03:41;99248.34;;;13.31;100.00
26719;BME280;14326;50.794;6.060;2022-10-16T04:06:26;99243.91;;;13.28;100.00
26719;BME280;14326;50.794;6.060;2022-10-16T04:08:57;99243.94;;;13.24;100.00
26719;BME280;14326;50.794;6.060;2022-10-16T04:11:34;99238.59;;;13.22;100.00
26719;BME280;14326;50.794;6.060;2022-10-16T04:14:04;99246.66;;;13.19;100.00
26719;BME280;14326;50.794;6.060;2022-10-16T04:16:30;99237.75;;;13.19;100.00
26719;BME280;14326;50.794;6.060;2022-10-16T04:18:57;99244.00;;;13.18;100.00
26719;BME280;14326;50.794;6.060;2022-10-16T04:21:25;99254.66;;;13.18;100.00
26719;BME280;14326;50.794;6.060;2022-10-16T04:23:52;99259.13;;;13.16;100.00
26719;BME280;14326;50.794;6.060;2022-10-16T04:26:18;99260.91;;;13.13;100.00
26719;BME280;14326;50.794;6.060;2022-10-16T04:28:45;99270.69;;;13.15;100.00
26719;BME280;14326;50.794;6.060;2022-10-16T04:31:11;99270.69;;;13.10;100.00
26719;BME280;14326;50.794;6.060;2022-10-16T04:33:38;99283.16;;;13.09;100.00
26719;BME280;14326;50.794;6.060;2022-10-16T04:36:05;99281.41;;;13.13;100.00
26719;BME280;14326;50.794;6.060;2022-10-16T04:38:33;99266.25;;;13.10;100.00
26719;BME280;14326;50.794;6.060;2022-10-16T04:41:00;99268.03;;;13.11;100.00
26719;BME280;14326;50.794;6.060;2022-10-16T04:43:27;99272.47;;;13.09;100.00
26719;BME280;14326;50.794;6.060;2022-10-16T04:45:53;99283.16;;;13.11;100.00
26719;BME280;14326;50.794;6.060;2022-10-16T04:48:20;99289.44;;;13.05;100.00
26719;BME280;14326;50.794;6.060;2022-10-16T04:50:47;99285.00;;;13.01;100.00
26719;BME280;14326;50.794;6.060;2022-10-16T04:53:13;99294.81;;;12.99;100.00
26719;BME280;14326;50.794;6.060;2022-10-16T04:55:42;99311.75;;;12.95;100.00
26719;BME280;14326;50.794;6.060;2022-10-16T04:58:09;99305.50;;;12.93;100.00
26719;BME280;14326;50.794;6.060;2022-10-16T05:00:35;99311.78;;;12.89;100.00
26719;BME280;14326;50.794;6.060;2022-10-16T05:03:04;99313.56;;;12.86;100.00
26719;BME280;14326;50.794;6.060;2022-10-16T05:05:32;99316.22;;;12.84;100.00
26719;BME280;14326;50.794;6.060;2022-10-16T05:07:59;99312.69;;;12.82;100.00
26719;BME280;14326;50.794;6.060;2022-10-16T05:10:26;99314.50;;;12.77;100.00
26719;BME280;14326;50.794;6.060;2022-10-16T05:12:54;99316.31;;;12.72;100.00
26719;BME280;14326;50.794;6.060;2022-10-16T05:15:21;99326.09;;;12.71;100.00
26719;BME280;14326;50.794;6.060;2022-10-16T05:17:52;99332.34;;;12.66;100.00
26719;BME280;14326;50.794;6.060;2022-10-16T05:20:19;99322.56;;;12.62;100.00
26719;BME280;14326;50.794;6.060;2022-10-16T05:22:45;99334.16;;;12.58;100.00
26719;BME280;14326;50.794;6.060;2022-10-16T05:25:12;99322.56;;;12.56;100.00
26719;BME280;14326;50.794;6.060;2022-10-16T05:27:38;99322.59;;;12.51;100.00
26719;BME280;14326;50.794;6.060;2022-10-16T05:30:07;99333.28;;;12.50;100.00
26719;BME280;14326;50.794;6.060;2022-10-16T05:32:34;99346.63;;;12.48;100.00
26719;BME280;14326;50.794;6.060;2022-10-16T05:35:00;99339.53;;;12.43;100.00
26719;BME280;14326;50.794;6.060;2022-10-16T05:37:27;99355.53;;;12.43;100.00
26719;BME280;14326;50.794;6.060;2022-10-16T05:39:54;99356.44;;;12.42;100.00
26719;BME280;14326;50.794;6.060;2022-10-16T05:42:20;99350.22;;;12.43;100.00
26719;BME280;14326;50.794;6.060;2022-10-16T05:44:47;99368.88;;;12.43;100.00
26719;BME280;14326;50.794;6.060;2022-10-16T05:47:15;99360.84;;;12.44;100.00
26719;BME280;14326;50.794;6.060;2022-10-16T05:49:41;99367.06;;;12.45;100.00
26719;BME280;14326;50.794;6.060;2022-10-16T05:52:08;99382.19;;;12.46;100.00
26719;BME280;14326;50.794;6.060;2022-10-16T05:54:35;99376.81;;;12.61;100.00
26719;BME280;14326;50.794;6.060;2022-10-16T05:57:01;99373.25;;;12.65;100.00
26719;BME280;14326;50.794;6.060;2022-10-16T05:59:30;99384.81;;;12.68;100.00
26719;BME280;14326;50.794;6.060;2022-10-16T06:01:57;99386.59;;;12.71;100.00
26719;BME280;14326;50.794;6.060;2022-10-16T06:04:25;99389.22;;;12.74;100.00
26719;BME280;14326;50.794;6.060;2022-10-16T06:06:51;99395.47;;;12.78;100.00
26719;BME280;14326;50.794;6.060;2022-10-16T06:09:18;99394.53;;;12.80;100.00
26719;BME280;14326;50.794;6.060;2022-10-16T06:11:44;99399.88;;;12.86;100.00
26719;BME280;14326;50.794;6.060;2022-10-16T06:14:11;99407.88;;;12.89;100.00
26719;BME280;14326;50.794;6.060;2022-10-16T06:16:38;99404.28;;;12.98;100.00
26719;BME280;14326;50.794;6.060;2022-10-16T06:19:04;99423.84;;;12.98;100.00
26719;BME280;14326;50.794;6.060;2022-10-16T06:21:35;99418.50;;;12.98;100.00
26719;BME280;14326;50.794;6.060;2022-10-16T06:24:01;99418.47;;;13.04;100.00
26719;BME280;14326;50.794;6.060;2022-10-16T06:26:29;99418.47;;;13.04;100.00
26719;BME280;14326;50.794;6.060;2022-10-16T06:28:58;99412.22;;;13.11;100.00
26719;BME280;14326;50.794;6.060;2022-10-16T06:31:25;99419.31;;;13.22;100.00
26719;BME280;14326;50.794;6.060;2022-10-16T06:33:53;99414.81;;;13.33;100.00
26719;BME280;14326;50.794;6.060;2022-10-16T06:36:20;99418.34;;;13.39;100.00
26719;BME280;14326;50.794;6.060;2022-10-16T06:38:49;99409.41;;;13.45;100.00
26719;BME280;14326;50.794;6.060;2022-10-16T06:41:17;99419.09;;;13.61;100.00
26719;BME280;14326;50.794;6.060;2022-10-16T06:43:46;99425.28;;;13.71;100.00
26719;BME280;14326;50.794;6.060;2022-10-16T06:46:15;99427.94;;;13.75;100.00
26719;BME280;14326;50.794;6.060;2022-10-16T06:48:42;99427.03;;;13.75;100.00
26719;BME280;14326;50.794;6.060;2022-10-16T06:51:10;99425.25;;;13.77;100.00
26719;BME280;14326;50.794;6.060;2022-10-16T06:53:40;99436.84;;;13.77;100.00
26719;BME280;14326;50.794;6.060;2022-10-16T06:56:10;99450.16;;;13.83;100.00
26719;BME280;14326;50.794;6.060;2022-10-16T06:58:36;99449.91;;;14.17;100.00
26719;BME280;14326;50.794;6.060;2022-10-16T07:01:04;99451.59;;;14.27;100.00
26719;BME280;14326;50.794;6.060;2022-10-16T07:03:31;99465.91;;;14.24;100.00
26719;BME280;14326;50.794;6.060;2022-10-16T07:06:01;99460.50;;;14.29;100.00
26719;BME280;14326;50.794;6.060;2022-10-16T07:08:27;99465.78;;;14.43;100.00
26719;BME280;14326;50.794;6.060;2022-10-16T07:11:00;99463.94;;;15.30;100.00
26719;BME280;14326;50.794;6.060;2022-10-16T07:13:28;99467.81;;;15.78;100.00
26719;BME280;14326;50.794;6.060;2022-10-16T07:15:55;99470.78;;;16.17;97.80
26719;BME280;14326;50.794;6.060;2022-10-16T07:18:21;99479.97;;;16.02;96.96
26719;BME280;14326;50.794;6.060;2022-10-16T07:20:51;99479.53;;;15.70;99.21
26719;BME280;14326;50.794;6.060;2022-10-16T07:23:18;99482.50;;;15.47;100.00
26719;BME280;14326;50.794;6.060;2022-10-16T07:25:44;99494.13;;;15.44;100.00
26719;BME280;14326;50.794;6.060;2022-10-16T07:28:11;99502.03;;;16.21;98.00
26719;BME280;14326;50.794;6.060;2022-10-16T07:30:39;99498.59;;;17.15;91.18
26719;BME280;14326;50.794;6.060;2022-10-16T07:33:05;99515.56;;;18.07;84.99
26719;BME280;14326;50.794;6.060;2022-10-16T07:35:32;99506.34;;;18.89;80.89
26719;BME280;14326;50.794;6.060;2022-10-16T07:37:59;99517.66;;;19.97;73.98
26719;BME280;14326;50.794;6.060;2022-10-16T07:40:25;99516.03;;;20.77;70.96
26719;BME280;14326;50.794;6.060;2022-10-16T07:42:53;99518.31;;;21.40;67.95
26719;BME280;14326;50.794;6.060;2022-10-16T07:45:19;99511.69;;;21.49;66.68
26719;BME280;14326;50.794;6.060;2022-10-16T07:47:48;99526.72;;;21.81;65.54
26719;BME280;14326;50.794;6.060;2022-10-16T07:50:14;99521.06;;;22.33;62.99
26719;BME280;14326;50.794;6.060;2022-10-16T07:52:41;99517.47;;;22.33;62.30
26719;BME280;14326;50.794;6.060;2022-10-16T07:55:08;99523.66;;;22.58;61.20
26719;BME280;14326;50.794;6.060;2022-10-16T07:57:35;99529.72;;;22.43;63.00
26719;BME280;14326;50.794;6.060;2022-10-16T08:00:02;99530.56;;;22.67;60.52
26719;BME280;14326;50.794;6.060;2022-10-16T08:02:29;99524.31;;;22.65;61.06
26719;BME280;14326;50.794;6.060;2022-10-16T08:04:57;99539.28;;;22.97;60.55
26719;BME280;14326;50.794;6.060;2022-10-16T08:07:24;99539.69;;;22.86;59.29
26719;BME280;14326;50.794;6.060;2022-10-16T08:09:50;99550.19;;;22.95;60.70
26719;BME280;14326;50.794;6.060;2022-10-16T08:12:17;99547.25;;;23.00;60.06
26719;BME280;14326;50.794;6.060;2022-10-16T08:14:44;99549.88;;;23.03;57.84
26719;BME280;14326;50.794;6.060;2022-10-16T08:17:14;99556.22;;;22.58;59.93
26719;BME280;14326;50.794;6.060;2022-10-16T08:19:44;99563.63;;;22.31;60.12
26719;BME280;14326;50.794;6.060;2022-10-16T08:22:12;99569.41;;;22.22;62.07
26719;BME280;14326;50.794;6.060;2022-10-16T08:24:39;99571.50;;;21.41;62.86
26719;BME280;14326;50.794;6.060;2022-10-16T08:27:06;99585.53;;;20.46;68.54
26719;BME280;14326;50.794;6.060;2022-10-16T08:29:34;99589.78;;;19.61;71.64
26719;BME280;14326;50.794;6.060;2022-10-16T08:32:00;99584.16;;;19.03;75.91
26719;BME280;14326;50.794;6.060;2022-10-16T08:34:27;99582.03;;;18.80;77.46
26719;BME280;14326;50.794;6.060;2022-10-16T08:36:54;99580.78;;;18.59;78.62
26719;BME280;14326;50.794;6.060;2022-10-16T08:39:22;99597.94;;;18.55;79.48
26719;BME280;14326;50.794;6.060;2022-10-16T08:42:18;99594.91;;;18.29;80.70
26719;BME280;14326;50.794;6.060;2022-10-16T08:48:08;99595.25;;;18.14;82.38
26719;BME280;14326;50.794;6.060;2022-10-16T08:50:41;99597.22;;;18.06;81.96
26719;BME280;14326;50.794;6.060;2022-10-16T08:53:12;99601.81;;;18.02;80.79
26719;BME280;14326;50.794;6.060;2022-10-16T08:55:44;99602.81;;;17.96;81.22
26719;BME280;14326;50.794;6.060;2022-10-16T08:58:13;99604.69;;;17.91;81.24
26719;BME280;14326;50.794;6.060;2022-10-16T09:00:41;99598.63;;;17.82;82.78
26719;BME280;14326;50.794;6.060;2022-10-16T09:03:16;99599.91;;;17.63;84.28
26719;BME280;14326;50.794;6.060;2022-10-16T09:06:06;99600.16;;;17.49;85.50
26719;BME280;14326;50.794;6.060;2022-10-16T09:08:40;99609.25;;;17.42;85.25
26719;BME280;14326;50.794;6.060;2022-10-16T09:11:16;99603.13;;;17.34;85.57
26719;BME280;14326;50.794;6.060;2022-10-16T09:13:51;99613.19;;;17.23;84.33
26719;BME280;14326;50.794;6.060;2022-10-16T09:16:25;99611.41;;;17.20;84.57
26719;BME280;14326;50.794;6.060;2022-10-16T09:18:58;99610.47;;;17.24;86.20
26719;BME280;14326;50.794;6.060;2022-10-16T09:21:29;99615.00;;;17.20;85.92
26719;BME280;14326;50.794;6.060;2022-10-16T09:23:58;99616.84;;;17.18;85.30
26719;BME280;14326;50.794;6.060;2022-10-16T09:26:27;99612.47;;;17.13;85.16
26719;BME280;14326;50.794;6.060;2022-10-16T09:28:53;99619.47;;;17.20;85.37
26719;BME280;14326;50.794;6.060;2022-10-16T09:31:22;99614.16;;;17.18;86.14
26719;BME280;14326;50.794;6.060;2022-10-16T09:33:52;99615.16;;;17.13;84.40
26719;BME280;14326;50.794;6.060;2022-10-16T09:36:20;99617.84;;;17.13;82.73
26719;BME280;14326;50.794;6.060;2022-10-16T09:38:48;99610.63;;;17.15;84.49
26719;BME280;14326;50.794;6.060;2022-10-16T09:41:17;99610.50;;;17.21;85.31
26719;BME280;14326;50.794;6.060;2022-10-16T09:43:51;99615.97;;;17.16;85.11
26719;BME280;14326;50.794;6.060;2022-10-16T09:46:25;99606.88;;;17.25;85.26
26719;BME280;14326;50.794;6.060;2022-10-16T09:48:54;99618.50;;;17.26;84.29
26719;BME280;14326;50.794;6.060;2022-10-16T09:51:26;99623.81;;;17.29;83.30
26719;BME280;14326;50.794;6.060;2022-10-16T09:53:56;99622.81;;;17.36;83.96
26719;BME280;14326;50.794;6.060;2022-10-16T09:56:26;99620.03;;;17.39;83.26
26719;BME280;14326;50.794;6.060;2022-10-16T09:58:57;99615.44;;;17.45;84.58
26719;BME280;14326;50.794;6.060;2022-10-16T10:01:30;99623.28;;;17.57;85.43
26719;BME280;14326;50.794;6.060;2022-10-16T10:04:00;99609.66;;;17.68;83.09
26719;BME280;14326;50.794;6.060;2022-10-16T10:06:29;99616.72;;;17.74;81.60
26719;BME280;14326;50.794;6.060;2022-10-16T10:08:59;99618.38;;;17.79;81.14
26719;BME280;14326;50.794;6.060;2022-10-16T10:11:48;99620.03;;;17.86;81.38
26719;BME280;14326;50.794;6.060;2022-10-16T10:14:28;99624.28;;;17.99;80.45
26719;BME280;14326;50.794;6.060;2022-10-16T10:17:17;99631.31;;;18.05;80.98
26719;BME280;14326;50.794;6.060;2022-10-16T10:19:50;99634.97;;;18.02;80.25
26719;BME280;14326;50.794;6.060;2022-10-16T10:22:20;99633.25;;;17.98;78.87
26719;BME280;14326;50.794;6.060;2022-10-16T10:24:55;99634.16;;;17.97;80.33
26719;BME280;14326;50.794;6.060;2022-10-16T10:27:30;99635.13;;;17.96;80.52
26719;BME280;14326;50.794;6.060;2022-10-16T10:30:06;99627.03;;;17.96;80.16
26719;BME280;14326;50.794;6.060;2022-10-16T10:32:39;99629.78;;;17.93;80.72
26719;BME280;14326;50.794;6.060;2022-10-16T10:35:15;99629.84;;;17.90;80.08
26719;BME280;14326;50.794;6.060;2022-10-16T10:37:55;99628.97;;;17.90;79.42
26719;BME280;14326;50.794;6.060;2022-10-16T10:40:38;99631.81;;;17.82;80.71
26719;BME280;14326;50.794;6.060;2022-10-16T10:43:13;99637.22;;;17.79;81.78
26719;BME280;14326;50.794;6.060;2022-10-16T10:45:46;99646.16;;;17.81;82.49
26719;BME280;14326;50.794;6.060;2022-10-16T10:48:35;99642.44;;;17.88;81.13
26719;BME280;14326;50.794;6.060;2022-10-16T10:51:12;99647.63;;;17.97;82.39
26719;BME280;14326;50.794;6.060;2022-10-16T10:53:49;99646.69;;;18.00;80.46
26719;BME280;14326;50.794;6.060;2022-10-16T10:56:31;99658.16;;;18.10;79.38
26719;BME280;14326;50.794;6.060;2022-10-16T10:59:33;99645.41;;;18.18;79.67
26719;BME280;14326;50.794;6.060;2022-10-16T11:02:10;99643.38;;;18.29;78.42
26719;BME280;14326;50.794;6.060;2022-10-16T11:04:51;99638.66;;;18.38;78.41
26719;BME280;14326;50.794;6.060;2022-10-16T11:07:26;99646.28;;;18.61;78.89
26719;BME280;14326;50.794;6.060;2022-10-16T11:09:57;99650.13;;;18.90;78.07
26719;BME280;14326;50.794;6.060;2022-10-16T11:12:31;99650.59;;;19.07;77.57
26719;BME280;14326;50.794;6.060;2022-10-16T11:15:04;99649.97;;;19.31;74.76
26719;BME280;14326;50.794;6.060;2022-10-16T11:17:39;99649.41;;;19.54;73.98
26719;BME280;14326;50.794;6.060;2022-10-16T11:20:14;99642.66;;;19.70;70.27
26719;BME280;14326;50.794;6.060;2022-10-16T11:22:45;99650.63;;;19.75;69.27
26719;BME280;14326;50.794;6.060;2022-10-16T11:25:16;99651.31;;;19.83;67.26
26719;BME280;14326;50.794;6.060;2022-10-16T11:27:49;99650.06;;;19.94;68.07
26719;BME280;14326;50.794;6.060;2022-10-16T11:30:19;99650.50;;;20.10;66.63
26719;BME280;14326;50.794;6.060;2022-10-16T11:32:56;99647.81;;;20.10;66.17
26719;BME280;14326;50.794;6.060;2022-10-16T11:35:36;99668.13;;;20.23;63.82
26719;BME280;14326;50.794;6.060;2022-10-16T11:38:12;99664.22;;;20.35;66.57
26719;BME280;14326;50.794;6.060;2022-10-16T11:40:43;99660.25;;;20.47;64.76
26719;BME280;14326;50.794;6.060;2022-10-16T11:43:15;99660.41;;;20.42;64.43
26719;BME280;14326;50.794;6.060;2022-10-16T11:45:46;99658.31;;;20.52;63.30
26719;BME280;14326;50.794;6.060;2022-10-16T11:48:24;99664.41;;;20.58;63.37
26719;BME280;14326;50.794;6.060;2022-10-16T11:50:57;99651.81;;;20.57;63.44
26719;BME280;14326;50.794;6.060;2022-10-16T11:53:39;99659.16;;;20.54;63.08
26719;BME280;14326;50.794;6.060;2022-10-16T11:56:12;99657.31;;;20.56;63.18
26719;BME280;14326;50.794;6.060;2022-10-16T11:58:44;99660.78;;;20.59;64.49
26719;BME280;14326;50.794;6.060;2022-10-16T12:01:18;99657.03;;;20.63;63.32
26719;BME280;14326;50.794;6.060;2022-10-16T12:03:59;99657.16;;;20.88;62.34
26719;BME280;14326;50.794;6.060;2022-10-16T12:06:34;99667.66;;;20.97;62.15
26719;BME280;14326;50.794;6.060;2022-10-16T12:09:03;99650.81;;;20.89;63.39
26719;BME280;14326;50.794;6.060;2022-10-16T12:11:33;99656.56;;;20.78;64.83
26719;BME280;14326;50.794;6.060;2022-10-16T12:14:07;99649.53;;;20.73;63.52
26719;BME280;14326;50.794;6.060;2022-10-16T12:16:34;99657.06;;;20.62;63.85
26719;BME280;14326;50.794;6.060;2022-10-16T12:19:11;99657.03;;;20.63;64.59
26719;BME280;14326;50.794;6.060;2022-10-16T12:21:38;99653.38;;;20.66;64.31
26719;BME280;14326;50.794;6.060;2022-10-16T12:24:05;99658.38;;;20.78;64.68
26719;BME280;14326;50.794;6.060;2022-10-16T12:26:33;99654.81;;;20.77;64.30
26719;BME280;14326;50.794;6.060;2022-10-16T12:29:26;99655.16;;;20.95;62.46
26719;BME280;14326;50.794;6.060;2022-10-16T12:31:54;99648.44;;;21.06;61.49
26719;BME280;14326;50.794;6.060;2022-10-16T12:34:27;99647.22;;;21.16;62.79
26719;BME280;14326;50.794;6.060;2022-10-16T12:36:56;99643.22;;;21.28;63.06
26719;BME280;14326;50.794;6.060;2022-10-16T12:39:34;99648.56;;;21.31;63.26
26719;BME280;14326;50.794;6.060;2022-10-16T12:42:05;99646.75;;;21.32;61.39
26719;BME280;14326;50.794;6.060;2022-10-16T12:44:33;99634.72;;;21.39;58.58
26719;BME280;14326;50.794;6.060;2022-10-16T12:47:00;99630.59;;;21.55;59.13
26719;BME280;14326;50.794;6.060;2022-10-16T12:49:36;99626.13;;;21.79;58.28
26719;BME280;14326;50.794;6.060;2022-10-16T12:54:46;99636.88;;;21.80;58.69
26719;BME280;14326;50.794;6.060;2022-10-16T12:57:28;99643.56;;;21.96;58.23
26719;BME280;14326;50.794;6.060;2022-10-16T13:00:04;99648.63;;;22.05;58.85
26719;BME280;14326;50.794;6.060;2022-10-16T13:02:53;99633.25;;;22.06;58.76
26719;BME280;14326;50.794;6.060;2022-10-16T13:05:30;99626.59;;;21.65;59.05
26719;BME280;14326;50.794;6.060;2022-10-16T13:08:12;99630.88;;;21.46;58.35
26719;BME280;14326;50.794;6.060;2022-10-16T13:10:53;99628.56;;;21.35;59.74
26719;BME280;14326;50.794;6.060;2022-10-16T13:13:35;99634.94;;;21.06;61.02
26719;BME280;14326;50.794;6.060;2022-10-16T13:16:13;99637.72;;;21.03;60.73
26719;BME280;14326;50.794;6.060;2022-10-16T13:18:51;99631.09;;;21.13;60.47
26719;BME280;14326;50.794;6.060;2022-10-16T13:21:36;99626.22;;;21.24;61.22
26719;BME280;14326;50.794;6.060;2022-10-16T13:24:15;99640.72;;;20.94;61.60
26719;BME280;14326;50.794;6.060;2022-10-16T13:26:53;99640.88;;;20.90;63.36